CheckWX is a tool to help pilots better visualize weather data.  It is not intended as a substitute for an official pre-flight weather briefing.

10:38:49 UTC

ZKPY TAF
Sunan International Airport
Pyongyang
TAF ZKPY 260420Z 2606/2706 35004MPS CAVOK TX30/2606Z TN18/2621Z TEMPO 2616/2622 15004MPS 6000 BKN030

Jun-26@
06:00 UTC

Jun-26 @ 06:00 UTC

Jun-27@
06:00 UTC

Jun-27 @ 06:00 UTC

TAF ZKPY 260420Z 2606/2706 35004MPS CAVOK TX30/2606Z TN18/2621Z
Wind
  • 350° at 8 KTS
Cloud Levels
  • No significant clouds

Jun-26@
16:00 UTC

Jun-26 @ 16:00 UTC

Jun-26@
22:00 UTC

Jun-26 @ 22:00 UTC

TEMPO 2616/2622 15004MPS 6000 BKN030

Temporary

Temporary Changes expected for less than half the time period

Wind
  • 150° at 8 KTS
Cloud Levels
  • Broken at 3,000' AGL